createdAt,value
2018-07-23T00:00:34.844Z,17.00
2018-07-23T00:03:02.037Z,17.00
2018-07-23T00:05:29.745Z,17.00
2018-07-23T00:07:56.988Z,16.90
2018-07-23T00:10:24.192Z,16.90
2018-07-23T00:12:51.824Z,16.90
2018-07-23T00:15:19.076Z,16.90
2018-07-23T00:17:46.299Z,16.90
2018-07-23T00:20:13.653Z,16.90
2018-07-23T00:22:40.890Z,16.80
2018-07-23T00:25:08.119Z,16.80
2018-07-23T00:27:35.364Z,16.70
2018-07-23T00:30:02.662Z,16.70
2018-07-23T00:32:29.886Z,16.70
2018-07-23T00:34:57.144Z,16.70
2018-07-23T00:37:24.336Z,16.70
2018-07-23T00:39:51.548Z,16.70
2018-07-23T00:42:18.789Z,16.60
2018-07-23T00:44:46.041Z,16.60
2018-07-23T00:47:13.247Z,16.60
2018-07-23T00:49:40.497Z,16.60
2018-07-23T00:52:07.779Z,16.60
2018-07-23T00:54:34.986Z,16.60
2018-07-23T00:57:02.656Z,16.60
2018-07-23T00:59:30.086Z,16.50
2018-07-23T01:01:57.296Z,16.50
2018-07-23T01:04:24.613Z,16.50
2018-07-23T01:06:51.829Z,16.50
2018-07-23T01:09:19.057Z,16.50
2018-07-23T01:11:46.512Z,16.40
2018-07-23T01:14:13.764Z,16.50
2018-07-23T01:16:41.072Z,16.40
2018-07-23T01:19:08.371Z,16.40
2018-07-23T01:21:35.704Z,16.30
2018-07-23T01:24:02.948Z,16.30
2018-07-23T01:26:30.155Z,16.40
2018-07-23T01:28:57.378Z,16.30
2018-07-23T01:31:24.620Z,16.40
2018-07-23T01:33:51.864Z,16.40
2018-07-23T01:36:19.100Z,16.40
2018-07-23T01:38:46.324Z,16.40
2018-07-23T01:41:13.596Z,16.40
2018-07-23T01:43:40.924Z,16.30
2018-07-23T01:46:08.384Z,16.40
2018-07-23T01:48:36.863Z,16.40
2018-07-23T01:51:04.345Z,16.40
2018-07-23T01:53:31.532Z,16.40
2018-07-23T01:55:58.735Z,16.40
2018-07-23T01:58:26.032Z,16.50
2018-07-23T02:00:53.457Z,16.50
2018-07-23T02:03:20.804Z,16.40
2018-07-23T02:05:48.036Z,16.50
2018-07-23T02:08:15.407Z,16.50
2018-07-23T02:10:42.734Z,16.50
2018-07-23T02:13:10.042Z,16.40
2018-07-23T02:15:37.352Z,16.40
2018-07-23T02:18:04.872Z,16.40
2018-07-23T02:20:32.169Z,16.40
2018-07-23T02:22:59.399Z,16.50
2018-07-23T02:25:26.651Z,16.60
2018-07-23T02:27:53.848Z,16.60
2018-07-23T02:30:21.054Z,16.60
2018-07-23T02:32:48.385Z,16.50
2018-07-23T02:35:15.569Z,16.40
2018-07-23T02:37:42.784Z,16.40
2018-07-23T02:40:10.164Z,16.40
2018-07-23T02:42:37.413Z,16.40
2018-07-23T02:45:04.701Z,16.30
2018-07-23T02:47:32.217Z,16.40
2018-07-23T02:49:59.391Z,16.40
2018-07-23T02:52:26.586Z,16.30
2018-07-23T02:54:53.906Z,16.30
2018-07-23T02:57:21.096Z,16.40
2018-07-23T02:59:48.292Z,16.30
2018-07-23T03:02:15.556Z,16.30
2018-07-23T03:04:42.752Z,16.30
2018-07-23T03:07:09.951Z,16.30
2018-07-23T03:09:37.264Z,16.20
2018-07-23T03:12:04.470Z,16.20
2018-07-23T03:14:31.684Z,16.20
2018-07-23T03:16:58.964Z,16.10
2018-07-23T03:19:26.288Z,16.20
2018-07-23T03:21:53.693Z,16.10
2018-07-23T03:29:56.196Z,16.20
2018-07-23T03:32:23.476Z,16.20
2018-07-23T03:34:50.740Z,16.10
2018-07-23T03:37:17.992Z,16.10
2018-07-23T03:39:45.379Z,16.20
2018-07-23T03:42:12.620Z,16.20
2018-07-23T03:44:39.888Z,16.10
2018-07-23T03:47:07.113Z,16.10
2018-07-23T03:49:34.320Z,16.10
2018-07-23T03:52:01.578Z,16.10
2018-07-23T03:54:28.952Z,16.20
2018-07-23T03:56:56.152Z,16.20
2018-07-23T03:59:23.371Z,16.20
2018-07-23T04:01:50.558Z,16.30
2018-07-23T04:04:17.788Z,16.30
2018-07-23T04:06:46.744Z,16.30
2018-07-23T04:09:14.015Z,16.40
2018-07-23T04:11:41.411Z,16.40
2018-07-23T04:14:08.639Z,16.40
2018-07-23T04:16:36.044Z,16.40
2018-07-23T04:19:03.252Z,16.50
2018-07-23T04:21:30.496Z,16.50
2018-07-23T04:23:57.929Z,16.50
2018-07-23T04:26:25.244Z,16.60
2018-07-23T04:28:52.494Z,16.60
2018-07-23T04:31:19.693Z,16.70
2018-07-23T04:33:46.905Z,16.70
2018-07-23T04:36:14.139Z,16.70
2018-07-23T04:38:41.485Z,16.80
2018-07-23T04:41:08.716Z,16.80
2018-07-23T04:43:36.225Z,16.90
2018-07-23T04:46:03.628Z,16.90
2018-07-23T04:48:30.805Z,17.00
2018-07-23T04:50:58.020Z,17.00
2018-07-23T04:53:25.296Z,17.00
2018-07-23T04:55:52.488Z,17.00
2018-07-23T04:58:19.974Z,17.10
2018-07-23T05:00:47.229Z,17.10
2018-07-23T05:03:14.590Z,17.10
2018-07-23T05:05:41.834Z,17.20
2018-07-23T05:08:09.145Z,17.10
2018-07-23T05:10:36.348Z,17.20
2018-07-23T05:13:03.901Z,17.30
2018-07-23T05:15:31.103Z,17.40
2018-07-23T05:17:58.341Z,17.40
2018-07-23T05:20:25.857Z,17.40
2018-07-23T05:22:53.092Z,17.50
2018-07-23T05:25:20.301Z,17.50
2018-07-23T05:27:47.516Z,17.60
2018-07-23T05:30:14.754Z,17.70
2018-07-23T05:32:41.976Z,17.80
2018-07-23T05:35:09.232Z,17.90
2018-07-23T05:37:36.488Z,18.00
2018-07-23T05:40:03.747Z,18.00
2018-07-23T05:42:31.016Z,17.90
2018-07-23T05:44:58.231Z,18.00
2018-07-23T05:47:25.424Z,18.00
2018-07-23T05:49:52.692Z,18.00
2018-07-23T05:52:20.389Z,18.10
2018-07-23T05:54:48.339Z,18.20
2018-07-23T05:57:15.577Z,18.10
2018-07-23T05:59:42.806Z,18.10
2018-07-23T06:02:10.103Z,18.10
2018-07-23T06:04:37.373Z,18.10
2018-07-23T06:09:31.796Z,18.30
2018-07-23T06:14:26.585Z,18.30
2018-07-23T06:16:53.835Z,18.50
2018-07-23T06:19:21.084Z,18.60
2018-07-23T06:21:48.324Z,18.60
2018-07-23T06:24:15.532Z,18.70
2018-07-23T06:26:42.784Z,18.70
2018-07-23T06:29:10.082Z,18.60
2018-07-23T06:31:37.361Z,18.50
2018-07-23T06:34:04.697Z,18.70
2018-07-23T06:36:32.000Z,18.70
2018-07-23T06:38:59.215Z,18.60
2018-07-23T06:41:26.467Z,18.60
2018-07-23T06:43:53.675Z,18.60
2018-07-23T06:46:20.929Z,18.70
2018-07-23T06:48:48.160Z,18.80
2018-07-23T06:51:15.386Z,19.00
2018-07-23T06:53:42.650Z,19.20
2018-07-23T06:56:09.936Z,19.50
2018-07-23T06:58:37.179Z,20.00
2018-07-23T07:01:04.440Z,19.90
2018-07-23T07:03:31.632Z,20.10
2018-07-23T07:05:58.894Z,20.10
2018-07-23T07:08:26.192Z,20.60
2018-07-23T07:10:53.488Z,20.80
2018-07-23T07:13:20.772Z,20.40
2018-07-23T07:15:47.948Z,20.50
2018-07-23T07:18:15.245Z,20.30
2018-07-23T07:20:42.533Z,20.40
2018-07-23T07:23:09.937Z,20.50
2018-07-23T07:25:37.293Z,20.30
2018-07-23T07:28:04.617Z,20.30
2018-07-23T07:30:31.838Z,20.50
2018-07-23T07:32:59.141Z,20.80
2018-07-23T07:35:26.372Z,21.10
2018-07-23T07:37:53.713Z,20.90
2018-07-23T07:40:20.917Z,21.00
2018-07-23T07:42:48.271Z,21.30
2018-07-23T07:45:15.536Z,21.30
2018-07-23T07:47:42.848Z,21.50
2018-07-23T07:50:10.439Z,21.60
2018-07-23T07:52:37.687Z,22.10
2018-07-23T07:55:05.436Z,22.00
2018-07-23T07:57:32.696Z,21.90
2018-07-23T07:59:59.937Z,21.90
2018-07-23T08:02:27.195Z,22.10
2018-07-23T08:04:54.438Z,22.20
2018-07-23T08:07:21.728Z,22.30
2018-07-23T08:09:49.054Z,22.70
2018-07-23T08:12:16.361Z,22.70
2018-07-23T08:14:43.649Z,22.60
2018-07-23T08:17:11.228Z,22.50
2018-07-23T08:19:38.520Z,22.80
2018-07-23T08:22:06.056Z,23.00
2018-07-23T08:24:33.348Z,22.50
2018-07-23T08:29:27.836Z,22.10
2018-07-23T08:31:55.183Z,22.30
2018-07-23T08:34:22.455Z,22.10
2018-07-23T08:36:50.055Z,21.70
2018-07-23T08:39:17.758Z,21.60
2018-07-23T08:41:45.073Z,21.90
2018-07-23T08:44:12.368Z,21.90
2018-07-23T08:46:39.580Z,21.70
2018-07-23T08:49:06.815Z,22.10
2018-07-23T08:51:34.063Z,22.40
2018-07-23T08:54:01.338Z,22.40
2018-07-23T08:56:28.828Z,22.70
2018-07-23T08:58:56.056Z,22.40
2018-07-23T09:01:23.292Z,22.40
2018-07-23T09:03:50.820Z,22.70
2018-07-23T09:06:18.064Z,22.90
2018-07-23T09:08:45.332Z,22.60
2018-07-23T09:11:12.575Z,22.50
2018-07-23T09:13:39.794Z,22.50
2018-07-23T09:16:07.026Z,22.80
2018-07-23T09:18:34.299Z,23.00
2018-07-23T09:21:01.539Z,22.50
2018-07-23T09:23:28.784Z,22.60
2018-07-23T09:25:56.062Z,22.60
2018-07-23T09:28:23.285Z,23.10
2018-07-23T09:30:51.768Z,23.40
2018-07-23T09:33:20.180Z,23.60
2018-07-23T09:35:47.573Z,22.70
2018-07-23T09:38:15.765Z,22.50
2018-07-23T09:40:43.104Z,22.60
2018-07-23T09:43:10.351Z,22.60
2018-07-23T09:45:38.731Z,23.00
2018-07-23T09:48:06.042Z,23.00
2018-07-23T09:50:33.240Z,22.90
2018-07-23T09:53:00.505Z,22.60
2018-07-23T09:55:27.806Z,22.80
2018-07-23T09:57:55.053Z,23.10
2018-07-23T10:00:27.965Z,22.70
2018-07-23T10:02:55.661Z,22.50
2018-07-23T10:05:22.960Z,22.80
2018-07-23T10:07:50.253Z,23.50
2018-07-23T10:10:17.483Z,23.60
2018-07-23T10:12:44.702Z,24.10
2018-07-23T10:15:11.991Z,24.00
2018-07-23T10:17:39.219Z,23.50
2018-07-23T10:20:07.213Z,23.30
2018-07-23T10:22:34.477Z,23.60
2018-07-23T10:25:02.451Z,24.20
2018-07-23T10:27:29.766Z,24.60
2018-07-23T10:29:57.142Z,24.30
2018-07-23T10:32:24.389Z,24.00
2018-07-23T10:34:51.647Z,24.10
2018-07-23T10:37:18.892Z,24.60
2018-07-23T10:39:46.553Z,24.50
2018-07-23T10:42:13.949Z,24.70
2018-07-23T10:44:41.222Z,24.10
2018-07-23T10:47:08.528Z,24.20
2018-07-23T10:49:36.000Z,24.60
2018-07-23T10:52:03.406Z,24.60
2018-07-23T10:54:30.850Z,24.80
2018-07-23T10:56:58.080Z,24.50
2018-07-23T10:59:25.387Z,24.50
2018-07-23T11:01:52.637Z,24.90
2018-07-23T11:04:19.951Z,24.80
2018-07-23T11:06:47.204Z,24.90
2018-07-23T11:09:14.432Z,24.70
2018-07-23T11:11:41.676Z,25.00
2018-07-23T11:14:09.053Z,24.80
2018-07-23T11:16:36.358Z,25.20
2018-07-23T11:19:03.758Z,25.30
2018-07-23T11:21:31.121Z,25.60
2018-07-23T11:23:58.560Z,25.80
2018-07-23T11:26:25.813Z,26.40
2018-07-23T11:28:53.422Z,26.90
2018-07-23T11:31:20.593Z,27.40
2018-07-23T11:33:48.080Z,27.50
2018-07-23T11:36:15.322Z,28.00
2018-07-23T11:38:42.699Z,28.60
2018-07-23T11:43:37.300Z,27.90
2018-07-23T11:46:04.661Z,27.80
2018-07-23T11:48:31.907Z,27.80
2018-07-23T11:50:58.992Z,27.90
2018-07-23T11:53:26.305Z,28.50
2018-07-23T11:55:54.164Z,29.60
2018-07-23T11:58:21.412Z,29.50
2018-07-23T12:00:48.685Z,29.60
2018-07-23T12:03:15.940Z,28.60
2018-07-23T12:05:43.169Z,29.00
2018-07-23T12:08:10.495Z,30.10
2018-07-23T12:10:37.788Z,31.50
2018-07-23T12:13:05.487Z,30.60
2018-07-23T12:15:32.757Z,29.60
2018-07-23T12:18:00.000Z,30.50
2018-07-23T12:20:27.212Z,29.70
2018-07-23T12:22:54.453Z,30.50
2018-07-23T12:25:21.204Z,30.70
2018-07-23T12:27:48.199Z,31.40
2018-07-23T12:30:14.956Z,31.70
2018-07-23T12:32:41.667Z,31.20
2018-07-23T12:35:08.381Z,30.90
2018-07-23T12:37:35.598Z,32.50
2018-07-23T12:40:02.439Z,34.10
2018-07-23T12:42:29.653Z,36.00
2018-07-23T12:44:56.948Z,35.10
2018-07-23T12:47:24.162Z,31.90
2018-07-23T12:49:51.497Z,31.20
2018-07-23T12:52:18.720Z,30.90
2018-07-23T12:57:13.250Z,32.40
2018-07-23T12:59:40.756Z,31.30
2018-07-23T13:02:07.938Z,32.00
2018-07-23T13:04:35.279Z,32.40
2018-07-23T13:07:02.017Z,31.30
2018-07-23T13:09:28.715Z,30.20
2018-07-23T13:11:55.455Z,30.60
2018-07-23T13:14:22.166Z,31.00
2018-07-23T13:16:48.891Z,30.40
2018-07-23T13:19:16.284Z,31.20
2018-07-23T13:21:45.072Z,31.10
2018-07-23T13:24:12.382Z,31.30
2018-07-23T13:26:39.663Z,31.60
2018-07-23T13:29:06.881Z,29.60
2018-07-23T13:31:34.189Z,29.00
2018-07-23T13:34:01.468Z,29.90
2018-07-23T13:36:28.693Z,30.30
2018-07-23T13:38:55.887Z,29.60
2018-07-23T13:41:23.096Z,28.70
2018-07-23T13:43:50.328Z,28.30
2018-07-23T13:46:17.645Z,29.10
2018-07-23T13:48:44.840Z,29.70
2018-07-23T13:51:12.129Z,31.50
2018-07-23T13:53:39.450Z,31.20
2018-07-23T13:56:06.677Z,30.90
2018-07-23T13:58:34.165Z,31.90
2018-07-23T14:03:49.328Z,34.80
2018-07-23T14:06:16.570Z,34.60
2018-07-23T14:08:43.815Z,33.20
2018-07-23T14:11:11.116Z,32.00
2018-07-23T14:13:38.324Z,31.60
2018-07-23T14:16:05.573Z,31.10
2018-07-23T14:18:32.931Z,32.90
2018-07-23T14:21:00.171Z,34.50
2018-07-23T14:25:54.136Z,38.30
2018-07-23T14:28:21.391Z,37.80
2018-07-23T14:30:48.653Z,35.60
2018-07-23T14:33:15.977Z,37.90
2018-07-23T14:35:43.243Z,38.10
2018-07-23T14:38:10.548Z,37.60
2018-07-23T14:40:37.754Z,38.00
2018-07-23T14:43:04.981Z,36.40
2018-07-23T14:45:32.496Z,37.10
2018-07-23T14:47:59.916Z,35.30
2018-07-23T14:50:27.155Z,34.50
2018-07-23T14:52:54.444Z,35.30
2018-07-23T14:55:21.640Z,36.20
2018-07-23T14:57:48.921Z,37.50
2018-07-23T15:00:16.504Z,39.60
2018-07-23T15:02:43.785Z,42.70
2018-07-23T15:07:38.255Z,44.40
2018-07-23T15:10:05.970Z,44.60
2018-07-23T15:12:33.185Z,44.00
2018-07-23T15:15:00.541Z,37.40
2018-07-23T15:17:28.563Z,35.80
2018-07-23T15:19:55.765Z,38.40
2018-07-23T15:22:23.036Z,38.90
2018-07-23T15:24:50.244Z,37.30
2018-07-23T15:27:17.522Z,36.10
2018-07-23T15:29:44.769Z,36.10
2018-07-23T15:32:12.181Z,36.50
2018-07-23T15:34:39.608Z,37.90
2018-07-23T15:37:07.636Z,39.70
2018-07-23T15:39:34.850Z,40.50
2018-07-23T15:42:02.138Z,40.90
2018-07-23T15:44:29.566Z,38.80
2018-07-23T15:46:56.616Z,37.00
2018-07-23T15:49:23.920Z,38.30
2018-07-23T15:51:51.239Z,38.50
2018-07-23T15:56:52.502Z,39.60
2018-07-23T15:59:19.816Z,41.80
2018-07-23T16:01:47.106Z,43.60
2018-07-23T16:04:14.471Z,41.70
2018-07-23T16:06:41.823Z,41.50
2018-07-23T16:09:11.496Z,42.00
2018-07-23T16:11:38.886Z,40.70
2018-07-23T16:14:12.972Z,40.60
2018-07-23T16:16:40.244Z,38.00
2018-07-23T16:19:07.789Z,36.60
2018-07-23T16:21:34.526Z,35.60
2018-07-23T16:24:01.289Z,38.30
2018-07-23T16:26:28.096Z,39.10
2018-07-23T16:28:55.409Z,37.70
2018-07-23T16:31:22.892Z,38.90
2018-07-23T16:33:50.475Z,40.50
2018-07-23T16:36:17.743Z,39.70
2018-07-23T16:38:45.004Z,38.50
2018-07-23T16:41:12.296Z,38.80
2018-07-23T16:43:39.944Z,39.20
2018-07-23T16:46:07.569Z,39.70
2018-07-23T16:48:34.815Z,37.00
2018-07-23T16:51:02.089Z,36.90
2018-07-23T16:53:29.493Z,37.10
2018-07-23T16:55:56.803Z,38.40
2018-07-23T16:58:24.114Z,39.00
2018-07-23T17:00:51.365Z,37.90
2018-07-23T17:03:18.736Z,38.60
2018-07-23T17:05:46.409Z,37.90
2018-07-23T17:08:13.980Z,38.30
2018-07-23T17:10:41.248Z,38.90
2018-07-23T17:15:35.886Z,38.00
2018-07-23T17:18:03.284Z,38.60
2018-07-23T17:20:30.691Z,38.60
2018-07-23T17:22:58.000Z,38.80
2018-07-23T17:25:25.288Z,38.10
2018-07-23T17:27:52.520Z,39.10
2018-07-23T17:32:45.995Z,33.60
2018-07-23T17:35:12.724Z,33.00
2018-07-23T17:37:39.646Z,32.10
2018-07-23T17:40:06.386Z,31.00
2018-07-23T17:42:33.133Z,30.40
2018-07-23T17:44:59.883Z,30.40
2018-07-23T17:47:26.572Z,30.00
2018-07-23T17:49:53.465Z,29.30
2018-07-23T17:52:20.744Z,29.40
2018-07-23T17:54:47.986Z,29.20
2018-07-23T17:57:15.235Z,28.60
2018-07-23T17:59:42.063Z,28.30
2018-07-23T18:02:09.532Z,28.10
2018-07-23T18:04:36.622Z,27.60
2018-07-23T18:07:03.379Z,27.50
2018-07-23T18:09:30.108Z,27.30
2018-07-23T18:11:57.328Z,27.10
2018-07-23T18:14:24.556Z,27.00
2018-07-23T18:16:51.808Z,26.90
2018-07-23T18:19:19.162Z,26.70
2018-07-23T18:21:46.558Z,26.60
2018-07-23T18:24:13.836Z,26.60
2018-07-23T18:26:41.100Z,26.40
2018-07-23T18:29:08.528Z,26.30
2018-07-23T18:31:35.778Z,26.30
2018-07-23T18:34:03.062Z,26.10
2018-07-23T18:36:30.401Z,26.00
2018-07-23T18:38:57.742Z,25.90
2018-07-23T18:41:24.940Z,25.80
2018-07-23T18:43:53.291Z,25.70
2018-07-23T18:46:20.654Z,25.60
2018-07-23T18:49:27.980Z,25.60
2018-07-23T18:51:55.713Z,25.50
2018-07-23T18:54:24.269Z,25.40
2018-07-23T18:56:53.210Z,25.30
2018-07-23T18:59:20.524Z,25.20
2018-07-23T19:01:49.077Z,25.10
2018-07-23T19:04:16.472Z,25.10
2018-07-23T19:06:43.732Z,25.00
2018-07-23T19:09:12.725Z,24.90
2018-07-23T19:11:40.828Z,24.80
2018-07-23T19:14:08.105Z,24.80
2018-07-23T19:16:35.439Z,24.70
2018-07-23T19:19:03.135Z,24.70
2018-07-23T19:21:31.595Z,24.60
2018-07-23T19:23:58.865Z,24.50
2018-07-23T19:26:26.144Z,24.50
2018-07-23T19:28:53.825Z,24.40
2018-07-23T19:31:21.205Z,24.30
2018-07-23T19:33:48.640Z,24.30
2018-07-23T19:36:15.944Z,24.20
2018-07-23T19:38:43.276Z,24.20
2018-07-23T19:41:10.606Z,24.10
2018-07-23T19:43:38.741Z,24.00
2018-07-23T19:46:06.055Z,23.90
2018-07-23T19:48:33.564Z,23.80
2018-07-23T19:51:00.849Z,23.80
2018-07-23T19:53:28.319Z,23.70
2018-07-23T19:55:55.614Z,23.60
2018-07-23T19:58:22.856Z,23.60
2018-07-23T20:01:28.076Z,23.60
2018-07-23T20:03:55.317Z,23.50
2018-07-23T20:06:23.852Z,23.50
2018-07-23T20:08:52.124Z,23.40
2018-07-23T20:11:20.063Z,23.30
2018-07-23T20:13:47.264Z,23.30
2018-07-23T20:16:14.512Z,23.20
2018-07-23T20:18:41.752Z,23.20
2018-07-23T20:21:09.206Z,23.10
2018-07-23T20:23:36.460Z,23.00
2018-07-23T20:26:03.770Z,23.00
2018-07-23T20:28:31.032Z,23.00
2018-07-23T20:30:58.481Z,22.90
2018-07-23T20:33:25.692Z,22.80
2018-07-23T20:35:52.905Z,22.80
2018-07-23T20:38:20.188Z,22.80
2018-07-23T20:40:47.413Z,22.80
2018-07-23T20:43:14.634Z,22.80
2018-07-23T20:45:41.920Z,22.80
2018-07-23T20:48:09.168Z,22.70
2018-07-23T20:50:36.393Z,22.70
2018-07-23T20:53:03.657Z,22.70
2018-07-23T20:55:30.911Z,22.70
2018-07-23T20:57:58.204Z,22.60
2018-07-23T21:00:25.473Z,22.60
2018-07-23T21:02:52.669Z,22.60
2018-07-23T21:05:19.900Z,22.50
2018-07-23T21:07:47.136Z,22.50
2018-07-23T21:10:14.354Z,22.40
2018-07-23T21:12:41.654Z,22.40
2018-07-23T21:15:09.430Z,22.40
2018-07-23T21:17:36.771Z,22.40
2018-07-23T21:20:05.623Z,22.40
2018-07-23T21:22:32.972Z,22.40
2018-07-23T21:25:00.529Z,22.30
2018-07-23T21:27:27.732Z,22.30
2018-07-23T21:29:55.017Z,22.20
2018-07-23T21:32:22.639Z,22.20
2018-07-23T21:34:49.922Z,22.20
2018-07-23T21:37:17.137Z,22.10
2018-07-23T21:39:44.385Z,22.10
2018-07-23T21:42:11.709Z,22.10
2018-07-23T21:44:38.989Z,22.10
2018-07-23T21:47:06.303Z,22.10
2018-07-23T21:49:33.516Z,22.00
2018-07-23T21:52:00.764Z,22.00
2018-07-23T21:54:28.494Z,22.00
2018-07-23T21:56:55.844Z,21.90
2018-07-23T21:59:23.066Z,21.90
2018-07-23T22:07:29.529Z,21.80
2018-07-23T22:09:56.836Z,21.70
2018-07-23T22:12:24.060Z,21.70
2018-07-23T22:14:51.272Z,21.70
2018-07-23T22:17:18.504Z,21.60
2018-07-23T22:19:45.741Z,21.50
2018-07-23T22:23:11.617Z,21.50
2018-07-23T22:25:38.865Z,21.40
2018-07-23T22:28:06.076Z,21.40
2018-07-23T22:30:33.276Z,21.30
2018-07-23T22:33:00.520Z,21.30
2018-07-23T22:35:27.732Z,21.30
2018-07-23T22:37:54.968Z,21.20
2018-07-23T22:40:22.216Z,21.20
2018-07-23T22:42:49.433Z,21.20
2018-07-23T22:45:16.644Z,21.10
2018-07-23T22:47:43.864Z,21.00
2018-07-23T22:50:11.163Z,21.00
2018-07-23T22:52:38.388Z,21.00
2018-07-23T22:55:05.668Z,20.90
2018-07-23T22:57:33.091Z,20.90
2018-07-23T23:00:00.329Z,20.80
2018-07-23T23:02:27.521Z,20.90
2018-07-23T23:04:54.877Z,21.00
2018-07-23T23:07:22.137Z,20.90
2018-07-23T23:09:49.340Z,20.90
2018-07-23T23:12:16.595Z,20.80
2018-07-23T23:14:44.312Z,20.80
2018-07-23T23:17:11.542Z,20.80
2018-07-23T23:19:38.816Z,20.80
2018-07-23T23:22:06.416Z,20.80
2018-07-23T23:24:33.612Z,20.80
2018-07-23T23:27:00.856Z,20.80
2018-07-23T23:29:28.099Z,20.80
2018-07-23T23:31:55.314Z,20.80
2018-07-23T23:34:22.512Z,20.80
2018-07-23T23:36:49.783Z,20.80
2018-07-23T23:39:17.040Z,20.80
2018-07-23T23:41:44.237Z,20.80
2018-07-23T23:44:11.459Z,20.80
2018-07-23T23:46:38.776Z,20.90
2018-07-23T23:49:06.053Z,20.80
2018-07-23T23:51:33.261Z,20.80
2018-07-23T23:54:00.968Z,20.70
2018-07-23T23:56:28.192Z,20.60
2018-07-23T23:58:55.491Z,20.60
